Time;durP1;ratioP1;P1;durP2;ratioP2;P2;SDS_P1;SDS_P2;PMS_P1;PMS_P2;Temp;Humidity;BMP_temperature;BMP_pressure;BME280_temperature;BME280_humidity;BME280_pressure;Samples;Min_cycle;Max_cycle;Signal;HPM_P1;HPM_P2
2022/07/26 00:01:20;;;;;;;;;;;18.80;99.90;;;;;;5017167;28;20401;-68
2022/07/26 00:03:49;;;;;;;;;;;18.80;99.90;;;;;;5006984;28;19954;-67
2022/07/26 00:06:16;;;;;;;;;;;18.80;99.90;;;;;;5002773;28;19930;-68
2022/07/26 00:08:43;;;;;;;;;;;18.80;99.90;;;;;;4982290;28;19926;-67
2022/07/26 00:11:10;;;;;;;;;;;18.70;99.90;;;;;;4980656;28;19930;-68
2022/07/26 00:13:37;;;;;;;;;;;18.70;99.90;;;;;;4980684;28;19926;-69
2022/07/26 00:16:04;;;;;;;;;;;18.60;99.90;;;;;;4984912;28;19933;-68
2022/07/26 00:18:30;;;;;;;;;;;18.60;99.90;;;;;;5006545;28;19925;-68
2022/07/26 00:29:11;;;;;;;;;;;18.40;99.90;;;;;;4980477;28;19957;-68
2022/07/26 00:31:38;;;;;;;;;;;18.30;99.90;;;;;;4985770;28;19980;-68
2022/07/26 00:34:05;;;;;;;;;;;18.20;99.90;;;;;;4981155;28;19926;-68
2022/07/26 00:36:33;;;;;;;;;;;18.30;99.90;;;;;;5000173;28;19946;-68
2022/07/26 00:39:00;;;;;;;;;;;18.10;99.90;;;;;;4977043;28;19929;-68
2022/07/26 00:41:26;;;;;;;;;;;18.00;99.90;;;;;;4984307;28;19926;-68
2022/07/26 00:43:55;;;;;;;;;;;18.00;99.90;;;;;;4976821;28;19930;-68
2022/07/26 00:46:21;;;;;;;;;;;18.00;99.90;;;;;;4995068;28;19926;-68
2022/07/26 00:48:48;;;;;;;;;;;18.00;99.90;;;;;;4980239;28;19937;-67
2022/07/26 00:51:15;;;;;;;;;;;17.90;99.90;;;;;;4980870;28;20374;-68
2022/07/26 00:53:44;;;;;;;;;;;17.90;99.90;;;;;;5005179;28;20404;-68
2022/07/26 00:56:13;;;;;;;;;;;17.90;99.90;;;;;;4984074;28;19980;-68
2022/07/26 00:58:40;;;;;;;;;;;17.80;99.90;;;;;;4987411;28;19933;-67
2022/07/26 01:01:06;;;;;;;;;;;17.80;99.90;;;;;;4982601;28;19926;-68
2022/07/26 01:03:33;;;;;;;;;;;17.70;99.90;;;;;;4983221;28;19933;-68
2022/07/26 01:06:00;;;;;;;;;;;17.80;99.90;;;;;;4982835;28;19926;-68
2022/07/26 01:08:27;;;;;;;;;;;17.70;99.90;;;;;;4977286;28;19926;-68
2022/07/26 01:10:55;;;;;;;;;;;17.70;99.90;;;;;;4979860;28;20406;-70
2022/07/26 01:13:24;;;;;;;;;;;17.60;99.90;;;;;;4982812;28;20399;-68
2022/07/26 01:15:51;;;;;;;;;;;17.60;99.90;;;;;;4983983;28;19957;-68
2022/07/26 01:18:17;;;;;;;;;;;17.60;99.90;;;;;;5002430;28;19926;-68
2022/07/26 01:20:44;;;;;;;;;;;17.60;99.90;;;;;;4980367;28;19929;-68
2022/07/26 01:23:13;;;;;;;;;;;17.50;99.90;;;;;;4982239;28;19926;-68
2022/07/26 01:25:40;;;;;;;;;;;17.50;99.90;;;;;;4977194;28;19934;-67
2022/07/26 01:28:06;;;;;;;;;;;17.40;99.90;;;;;;4979718;28;20356;-68
2022/07/26 01:30:33;;;;;;;;;;;17.50;99.90;;;;;;4978102;28;20397;-68
2022/07/26 01:33:00;;;;;;;;;;;17.40;99.90;;;;;;4980111;28;20406;-68
2022/07/26 01:35:27;;;;;;;;;;;17.40;99.90;;;;;;4984420;28;19929;-69
2022/07/26 01:37:54;;;;;;;;;;;17.40;99.90;;;;;;4979911;28;19930;-69
2022/07/26 01:40:22;;;;;;;;;;;17.30;99.90;;;;;;4984331;28;19925;-68
2022/07/26 01:42:49;;;;;;;;;;;17.30;99.90;;;;;;5012600;28;20040;-69
2022/07/26 01:45:16;;;;;;;;;;;17.30;99.90;;;;;;4984441;28;19929;-68
2022/07/26 01:47:43;;;;;;;;;;;17.30;99.90;;;;;;5001606;28;19933;-66
2022/07/26 01:50:10;;;;;;;;;;;17.30;99.90;;;;;;4978581;28;19937;-67
2022/07/26 01:52:38;;;;;;;;;;;17.30;99.90;;;;;;5001970;28;19938;-67
2022/07/26 01:55:05;;;;;;;;;;;17.30;99.90;;;;;;4983507;28;19925;-68
2022/07/26 01:57:33;;;;;;;;;;;17.30;99.90;;;;;;4999758;28;19930;-68
2022/07/26 02:00:00;;;;;;;;;;;17.30;99.90;;;;;;4998427;28;19930;-68
2022/07/26 02:02:27;;;;;;;;;;;17.30;99.90;;;;;;5014189;28;19930;-69
2022/07/26 02:05:00;;;;;;;;;;;17.30;99.90;;;;;;5014387;28;19929;-67
2022/07/26 02:07:27;;;;;;;;;;;17.30;99.90;;;;;;4983950;28;20024;-68
2022/07/26 02:09:53;;;;;;;;;;;17.40;99.90;;;;;;4981510;28;19933;-68
2022/07/26 02:12:20;;;;;;;;;;;17.30;99.90;;;;;;4982163;28;19925;-68
2022/07/26 02:14:49;;;;;;;;;;;17.30;99.90;;;;;;4983333;28;20363;-68
2022/07/26 02:17:16;;;;;;;;;;;17.40;99.90;;;;;;5015269;28;19929;-67
2022/07/26 02:19:43;;;;;;;;;;;17.30;99.90;;;;;;4983538;28;19929;-68
2022/07/26 02:22:10;;;;;;;;;;;17.30;99.90;;;;;;4997298;28;20294;-68
2022/07/26 02:24:37;;;;;;;;;;;17.30;99.90;;;;;;4982299;28;19961;-68
2022/07/26 02:27:04;;;;;;;;;;;17.30;99.90;;;;;;5014504;28;19984;-68
2022/07/26 02:29:31;;;;;;;;;;;17.30;99.90;;;;;;4999628;28;19932;-68
2022/07/26 02:32:00;;;;;;;;;;;17.30;99.90;;;;;;4979251;28;19929;-68
2022/07/26 02:34:27;;;;;;;;;;;17.30;99.90;;;;;;4979255;28;19929;-67
2022/07/26 02:36:54;;;;;;;;;;;17.20;99.90;;;;;;4983847;28;19926;-68
2022/07/26 02:39:26;;;;;;;;;;;17.20;99.90;;;;;;4978890;28;20353;-68
2022/07/26 02:41:53;;;;;;;;;;;17.20;99.90;;;;;;5008079;28;19933;-68
2022/07/26 02:44:20;;;;;;;;;;;17.20;99.90;;;;;;5013655;28;19929;-68
2022/07/26 02:46:46;;;;;;;;;;;17.20;99.90;;;;;;4981572;28;19930;-68
2022/07/26 02:49:15;;;;;;;;;;;17.10;99.90;;;;;;4984188;28;19925;-68
2022/07/26 02:51:41;;;;;;;;;;;17.10;99.90;;;;;;5001130;28;20360;-67
2022/07/26 02:54:08;;;;;;;;;;;17.00;99.90;;;;;;5003636;28;19984;-65
2022/07/26 02:56:35;;;;;;;;;;;17.00;99.90;;;;;;4976296;28;19949;-68
2022/07/26 02:59:01;;;;;;;;;;;17.10;99.90;;;;;;4986106;28;20349;-68
2022/07/26 03:01:29;;;;;;;;;;;17.00;99.90;;;;;;5002256;28;19941;-68
2022/07/26 03:03:56;;;;;;;;;;;17.00;99.90;;;;;;5017575;28;19965;-67
2022/07/26 03:06:24;;;;;;;;;;;17.10;99.90;;;;;;5019294;28;19925;-68
2022/07/26 03:08:51;;;;;;;;;;;17.00;99.90;;;;;;4981965;28;19925;-65
2022/07/26 03:11:18;;;;;;;;;;;17.10;99.90;;;;;;4986986;28;19941;-68
2022/07/26 03:13:44;;;;;;;;;;;17.10;99.90;;;;;;4982574;28;19941;-68
2022/07/26 03:16:11;;;;;;;;;;;17.10;99.90;;;;;;4987097;28;19972;-68
2022/07/26 03:18:38;;;;;;;;;;;17.00;99.90;;;;;;4980365;28;19984;-68
2022/07/26 03:21:05;;;;;;;;;;;17.10;99.90;;;;;;4984190;28;19926;-68
2022/07/26 03:23:33;;;;;;;;;;;17.10;99.90;;;;;;4998004;28;19930;-68
2022/07/26 03:26:01;;;;;;;;;;;17.20;99.90;;;;;;4987556;28;19925;-68
2022/07/26 03:28:29;;;;;;;;;;;17.30;99.90;;;;;;4988642;28;19926;-69
2022/07/26 03:30:56;;;;;;;;;;;17.40;99.90;;;;;;4994843;28;19930;-68
2022/07/26 03:33:22;;;;;;;;;;;17.40;99.90;;;;;;4979267;28;19925;-68
2022/07/26 03:35:49;;;;;;;;;;;17.40;99.90;;;;;;4977923;28;19926;-68
2022/07/26 03:38:16;;;;;;;;;;;17.50;99.90;;;;;;5013045;28;19926;-67
2022/07/26 03:40:44;;;;;;;;;;;17.50;99.90;;;;;;4981777;28;19930;-68
2022/07/26 03:43:11;;;;;;;;;;;17.50;99.90;;;;;;5000902;28;19933;-70
2022/07/26 03:45:38;;;;;;;;;;;17.50;99.90;;;;;;4979573;28;19930;-68
2022/07/26 03:48:05;;;;;;;;;;;17.50;99.90;;;;;;4984090;28;20329;-68
2022/07/26 03:50:32;;;;;;;;;;;17.50;99.90;;;;;;5002926;28;20460;-68
2022/07/26 03:52:58;;;;;;;;;;;17.50;99.90;;;;;;4998523;28;19980;-67
2022/07/26 03:58:11;;;;;;;;;;;17.50;99.90;;;;;;5013692;28;20402;-68
2022/07/26 04:00:38;;;;;;;;;;;17.50;99.90;;;;;;4979857;28;19930;-69
2022/07/26 04:03:05;;;;;;;;;;;17.50;99.90;;;;;;5007387;28;20393;-68
2022/07/26 04:05:32;;;;;;;;;;;17.50;99.90;;;;;;4981680;28;19933;-68
2022/07/26 04:07:58;;;;;;;;;;;17.50;99.90;;;;;;5005425;28;19930;-69
2022/07/26 04:10:25;;;;;;;;;;;17.50;99.90;;;;;;4980724;28;19940;-67
2022/07/26 04:12:52;;;;;;;;;;;17.50;99.90;;;;;;4981036;28;19926;-68
2022/07/26 04:15:20;;;;;;;;;;;17.50;99.90;;;;;;5007169;28;19926;-69
2022/07/26 04:17:48;;;;;;;;;;;17.50;99.90;;;;;;5004303;28;19934;-68
2022/07/26 04:20:15;;;;;;;;;;;17.40;99.90;;;;;;5018772;28;19925;-67
2022/07/26 04:22:42;;;;;;;;;;;17.50;99.90;;;;;;4982757;28;20294;-68
2022/07/26 04:25:09;;;;;;;;;;;17.50;99.90;;;;;;4981285;28;19980;-68
2022/07/26 04:27:36;;;;;;;;;;;17.60;99.90;;;;;;4982481;28;19926;-68
2022/07/26 04:30:03;;;;;;;;;;;17.70;99.90;;;;;;4977606;28;19930;-67
2022/07/26 04:32:32;;;;;;;;;;;17.80;99.90;;;;;;5009345;28;19937;-66
2022/07/26 04:34:59;;;;;;;;;;;17.80;99.90;;;;;;5009009;28;19930;-67
2022/07/26 04:37:25;;;;;;;;;;;17.80;99.90;;;;;;4976835;28;19949;-66
2022/07/26 04:39:52;;;;;;;;;;;17.80;99.90;;;;;;4977383;28;20385;-66
2022/07/26 04:42:19;;;;;;;;;;;17.70;99.90;;;;;;4992854;28;20352;-66
2022/07/26 04:44:46;;;;;;;;;;;17.80;99.90;;;;;;4983438;28;19941;-66
2022/07/26 04:47:12;;;;;;;;;;;17.70;99.90;;;;;;4983582;28;19926;-67
2022/07/26 04:49:41;;;;;;;;;;;17.70;99.90;;;;;;4985362;28;19925;-67
2022/07/26 04:52:07;;;;;;;;;;;17.80;99.90;;;;;;4981961;28;19926;-67
2022/07/26 04:54:34;;;;;;;;;;;17.80;99.90;;;;;;5005992;28;19972;-67
2022/07/26 04:57:01;;;;;;;;;;;17.80;99.90;;;;;;4981876;28;19980;-67
2022/07/26 04:59:28;;;;;;;;;;;17.80;99.90;;;;;;4982239;28;19926;-68
2022/07/26 05:01:54;;;;;;;;;;;17.70;99.90;;;;;;4981262;28;19933;-65
2022/07/26 05:04:21;;;;;;;;;;;17.70;99.90;;;;;;4993884;28;19926;-73
2022/07/26 05:06:50;;;;;;;;;;;17.80;99.90;;;;;;4975420;28;20353;-65
2022/07/26 05:09:17;;;;;;;;;;;17.80;99.90;;;;;;4978802;28;19933;-66
2022/07/26 05:11:43;;;;;;;;;;;17.90;99.90;;;;;;5005015;28;20049;-66
2022/07/26 05:14:10;;;;;;;;;;;17.90;99.90;;;;;;4985958;28;20282;-66
2022/07/26 05:16:37;;;;;;;;;;;17.80;99.90;;;;;;5006526;28;19974;-65
2022/07/26 05:19:04;;;;;;;;;;;17.80;99.90;;;;;;4987264;28;19930;-65
2022/07/26 05:21:30;;;;;;;;;;;17.80;99.90;;;;;;4996243;28;19934;-65
2022/07/26 05:23:59;;;;;;;;;;;17.80;99.90;;;;;;5003970;28;19930;-65
2022/07/26 05:26:25;;;;;;;;;;;17.80;99.90;;;;;;4980230;28;19956;-65
2022/07/26 05:28:53;;;;;;;;;;;17.70;99.90;;;;;;4989140;28;19926;-66
2022/07/26 05:31:19;;;;;;;;;;;17.70;99.90;;;;;;5012941;28;20006;-64
2022/07/26 05:33:46;;;;;;;;;;;17.80;99.90;;;;;;4980290;28;19926;-65
2022/07/26 05:36:13;;;;;;;;;;;17.80;99.90;;;;;;4983746;28;19933;-66
2022/07/26 05:38:40;;;;;;;;;;;17.60;99.90;;;;;;5000029;28;19926;-65
2022/07/26 05:41:08;;;;;;;;;;;17.40;99.90;;;;;;4983164;28;19925;-64
2022/07/26 05:43:35;;;;;;;;;;;17.40;99.90;;;;;;5002534;28;19980;-65
2022/07/26 05:46:02;;;;;;;;;;;17.40;99.90;;;;;;4983392;28;19972;-66
2022/07/26 05:48:28;;;;;;;;;;;17.50;99.90;;;;;;4979859;28;19941;-65
2022/07/26 05:50:55;;;;;;;;;;;17.60;99.90;;;;;;4987570;28;19926;-65
2022/07/26 05:53:22;;;;;;;;;;;17.60;99.90;;;;;;4980771;28;19926;-65
2022/07/26 05:55:49;;;;;;;;;;;17.60;99.90;;;;;;4981356;28;19933;-66
2022/07/26 05:58:17;;;;;;;;;;;17.70;99.90;;;;;;4978573;28;19926;-69
2022/07/26 06:00:44;;;;;;;;;;;17.70;99.90;;;;;;5003367;28;19925;-70
2022/07/26 06:03:23;;;;;;;;;;;17.80;99.90;;;;;;4978522;28;20005;-68
2022/07/26 06:05:50;;;;;;;;;;;17.90;99.90;;;;;;5016226;28;19930;-67
2022/07/26 06:08:17;;;;;;;;;;;17.90;99.90;;;;;;5004047;28;19930;-65
2022/07/26 06:10:44;;;;;;;;;;;18.00;99.90;;;;;;4977659;28;20427;-66
2022/07/26 06:13:10;;;;;;;;;;;18.00;99.90;;;;;;4977120;28;19925;-65
2022/07/26 06:15:39;;;;;;;;;;;18.10;99.90;;;;;;4975186;28;19999;-67
2022/07/26 06:18:06;;;;;;;;;;;18.20;99.90;;;;;;4979893;28;19926;-67
2022/07/26 06:20:33;;;;;;;;;;;18.10;99.90;;;;;;4999275;28;19934;-66
2022/07/26 06:23:00;;;;;;;;;;;18.00;99.90;;;;;;5010323;28;20368;-67
2022/07/26 06:25:27;;;;;;;;;;;18.10;99.90;;;;;;4987376;28;19925;-68
2022/07/26 06:27:53;;;;;;;;;;;18.00;99.90;;;;;;4996168;28;19957;-68
2022/07/26 06:30:20;;;;;;;;;;;18.10;99.90;;;;;;5017323;28;19926;-67
2022/07/26 06:32:48;;;;;;;;;;;18.20;99.90;;;;;;4995647;28;19940;-66
2022/07/26 06:35:16;;;;;;;;;;;18.10;99.90;;;;;;4976604;28;19933;-67
2022/07/26 06:37:42;;;;;;;;;;;18.00;99.90;;;;;;4999005;28;19938;-67
2022/07/26 06:40:10;;;;;;;;;;;18.10;99.90;;;;;;4979435;28;19930;-66
2022/07/26 06:42:37;;;;;;;;;;;18.20;99.90;;;;;;5018266;28;19980;-67
2022/07/26 06:45:05;;;;;;;;;;;18.10;99.90;;;;;;5018799;28;19926;-66
2022/07/26 06:47:31;;;;;;;;;;;18.20;99.90;;;;;;5005714;28;20282;-66
2022/07/26 06:50:00;;;;;;;;;;;18.10;99.90;;;;;;5018494;28;19930;-65
2022/07/26 06:52:26;;;;;;;;;;;18.10;99.90;;;;;;4981530;28;19925;-68
2022/07/26 06:54:53;;;;;;;;;;;18.10;99.90;;;;;;5007816;28;19969;-67
2022/07/26 06:57:20;;;;;;;;;;;18.20;99.90;;;;;;5018759;28;19930;-66
2022/07/26 06:59:47;;;;;;;;;;;18.10;99.90;;;;;;4981303;28;19934;-68
2022/07/26 07:02:13;;;;;;;;;;;18.00;99.90;;;;;;5016714;28;19933;-66
2022/07/26 07:04:40;;;;;;;;;;;18.00;99.90;;;;;;4979595;28;19941;-66
2022/07/26 07:07:09;;;;;;;;;;;18.20;99.90;;;;;;4980913;28;19926;-67
2022/07/26 07:09:36;;;;;;;;;;;18.30;99.90;;;;;;5018504;28;20385;-66
2022/07/26 07:12:03;;;;;;;;;;;18.30;99.90;;;;;;4981471;28;19925;-66
2022/07/26 07:14:30;;;;;;;;;;;18.40;99.90;;;;;;4978951;28;19933;-66
2022/07/26 07:16:57;;;;;;;;;;;18.30;99.90;;;;;;5016592;28;19926;-66
2022/07/26 07:19:24;;;;;;;;;;;18.40;99.90;;;;;;4981619;28;20401;-66
2022/07/26 07:21:51;;;;;;;;;;;18.40;99.90;;;;;;4984593;28;19941;-66
2022/07/26 07:24:19;;;;;;;;;;;18.40;99.90;;;;;;4980424;28;20008;-67
2022/07/26 07:26:46;;;;;;;;;;;18.40;99.90;;;;;;4981754;28;19926;-66
2022/07/26 07:29:13;;;;;;;;;;;18.30;99.90;;;;;;5003209;28;19925;-66
2022/07/26 07:31:40;;;;;;;;;;;18.40;99.90;;;;;;5004318;28;19965;-66
2022/07/26 07:34:07;;;;;;;;;;;18.50;99.90;;;;;;4983471;28;19933;-66
2022/07/26 07:36:34;;;;;;;;;;;18.60;99.90;;;;;;5000619;28;19933;-66
2022/07/26 07:39:00;;;;;;;;;;;18.60;99.90;;;;;;4982592;28;19933;-66
2022/07/26 07:41:29;;;;;;;;;;;18.80;99.90;;;;;;4980106;28;19972;-67
2022/07/26 07:43:55;;;;;;;;;;;18.80;99.90;;;;;;5003622;28;20354;-66
2022/07/26 07:46:22;;;;;;;;;;;18.90;99.90;;;;;;5047444;23;19925;-69
2022/07/26 07:48:48;;;;;;;;;;;18.90;99.90;;;;;;5023671;28;20027;-70
2022/07/26 07:51:15;;;;;;;;;;;19.00;99.90;;;;;;5026939;28;19994;-70
2022/07/26 07:53:42;;;;;;;;;;;19.00;99.90;;;;;;5025894;28;19965;-69
2022/07/26 07:56:08;;;;;;;;;;;18.90;99.90;;;;;;5047798;28;19971;-69
2022/07/26 07:58:36;;;;;;;;;;;19.00;99.90;;;;;;5024826;28;19975;-70
2022/07/26 08:01:03;;;;;;;;;;;19.00;99.90;;;;;;5026325;28;20341;-69
2022/07/26 08:03:30;;;;;;;;;;;19.20;99.90;;;;;;5020651;28;19924;-70
2022/07/26 08:05:57;;;;;;;;;;;19.50;99.90;;;;;;5021701;28;19975;-70
2022/07/26 08:08:23;;;;;;;;;;;19.70;99.90;;;;;;5023901;28;19925;-70
2022/07/26 08:10:51;;;;;;;;;;;19.80;99.90;;;;;;5016763;28;19925;-70
2022/07/26 08:13:18;;;;;;;;;;;19.90;99.90;;;;;;5025081;28;19925;-70
2022/07/26 08:15:46;;;;;;;;;;;20.00;99.90;;;;;;5022838;28;19929;-70
2022/07/26 08:18:13;;;;;;;;;;;20.30;99.90;;;;;;5029531;28;19925;-70
2022/07/26 08:20:40;;;;;;;;;;;20.30;99.90;;;;;;5022884;28;20380;-70
2022/07/26 08:23:06;;;;;;;;;;;20.60;99.90;;;;;;5012071;28;19934;-70
2022/07/26 08:25:33;;;;;;;;;;;20.30;99.90;;;;;;5023007;28;19924;-70
2022/07/26 08:28:00;;;;;;;;;;;20.10;99.90;;;;;;5018583;28;19925;-69
2022/07/26 08:30:26;;;;;;;;;;;20.10;99.90;;;;;;5024764;28;20362;-70
2022/07/26 08:32:55;;;;;;;;;;;20.00;99.90;;;;;;5021683;28;19925;-70
2022/07/26 08:35:21;;;;;;;;;;;19.90;99.90;;;;;;5023711;28;19925;-69
2022/07/26 08:37:48;;;;;;;;;;;20.00;99.90;;;;;;5019257;28;19925;-70
2022/07/26 08:40:15;;;;;;;;;;;20.10;99.90;;;;;;5020672;28;19925;-69
2022/07/26 08:42:48;;;;;;;;;;;20.20;99.90;;;;;;5019982;28;19929;-69
2022/07/26 08:45:20;;;;;;;;;;;20.30;99.90;;;;;;5018500;28;19961;-70
2022/07/26 08:47:47;;;;;;;;;;;20.30;99.90;;;;;;5027346;28;19939;-70
2022/07/26 08:50:15;;;;;;;;;;;20.50;99.90;;;;;;5018064;28;19925;-70
2022/07/26 08:52:42;;;;;;;;;;;20.50;99.90;;;;;;5021211;28;19929;-69
2022/07/26 08:55:09;;;;;;;;;;;20.80;99.90;;;;;;5018011;28;19929;-69
2022/07/26 08:57:36;;;;;;;;;;;21.00;99.90;;;;;;5017826;28;20002;-70
2022/07/26 09:00:17;;;;;;;;;;;21.30;99.90;;;;;;5032616;28;19928;-70
2022/07/26 09:02:43;;;;;;;;;;;21.40;99.90;;;;;;5019293;28;20036;-69
2022/07/26 09:05:10;;;;;;;;;;;21.70;99.90;;;;;;5021726;28;20355;-70
2022/07/26 09:07:39;;;;;;;;;;;21.70;99.90;;;;;;5026018;28;19990;-70
2022/07/26 09:10:07;;;;;;;;;;;21.40;99.90;;;;;;5019356;28;19925;-70
2022/07/26 09:12:34;;;;;;;;;;;21.20;99.90;;;;;;5028335;28;19948;-70
2022/07/26 09:15:02;;;;;;;;;;;21.30;99.90;;;;;;5022568;28;19925;-70
2022/07/26 09:17:38;;;;;;;;;;;21.30;99.90;;;;;;5026945;28;19925;-70
2022/07/26 09:20:08;;;;;;;;;;;21.40;99.90;;;;;;5022165;28;19931;-71
2022/07/26 09:22:35;;;;;;;;;;;21.40;99.90;;;;;;5016681;28;19932;-70
2022/07/26 09:25:03;;;;;;;;;;;21.80;99.90;;;;;;5017524;28;19982;-70
2022/07/26 09:27:34;;;;;;;;;;;21.60;99.90;;;;;;5031806;28;19968;-70
2022/07/26 09:30:05;;;;;;;;;;;21.20;99.90;;;;;;5004153;28;20571;-70
2022/07/26 09:32:32;;;;;;;;;;;20.90;99.90;;;;;;5017315;28;19924;-70
2022/07/26 09:35:10;;;;;;;;;;;20.90;99.90;;;;;;5019089;28;19971;-70
2022/07/26 09:37:37;;;;;;;;;;;21.00;99.90;;;;;;5021584;28;20027;-70
2022/07/26 09:40:08;;;;;;;;;;;21.30;99.90;;;;;;5024717;28;19978;-71
2022/07/26 09:42:34;;;;;;;;;;;21.80;99.90;;;;;;5020837;28;19928;-71
2022/07/26 09:45:01;;;;;;;;;;;22.00;99.90;;;;;;5025009;28;20384;-70
2022/07/26 09:47:38;;;;;;;;;;;22.10;99.90;;;;;;5018228;28;19987;-70
2022/07/26 09:50:09;;;;;;;;;;;22.10;99.90;;;;;;5026929;28;19940;-70
2022/07/26 09:52:36;;;;;;;;;;;22.20;99.90;;;;;;5022279;28;20284;-70
2022/07/26 09:55:04;;;;;;;;;;;22.00;99.90;;;;;;5019476;28;19961;-70
2022/07/26 09:57:34;;;;;;;;;;;21.80;99.90;;;;;;5025964;28;19932;-71
2022/07/26 10:00:02;;;;;;;;;;;21.80;99.90;;;;;;5018447;28;19929;-71
2022/07/26 10:02:31;;;;;;;;;;;21.60;99.90;;;;;;5037394;28;19931;-71
2022/07/26 10:04:58;;;;;;;;;;;21.80;99.90;;;;;;5012338;28;19929;-71
2022/07/26 10:07:25;;;;;;;;;;;22.10;99.90;;;;;;5014032;28;19929;-71
2022/07/26 10:09:54;;;;;;;;;;;22.40;99.90;;;;;;5024231;28;19960;-71
2022/07/26 10:12:21;;;;;;;;;;;22.60;99.90;;;;;;5016521;28;19925;-71
2022/07/26 10:14:50;;;;;;;;;;;22.80;99.90;;;;;;5016226;28;19937;-71
2022/07/26 10:17:44;;;;;;;;;;;23.10;99.90;;;;;;5018249;28;19933;-72
2022/07/26 10:20:31;;;;;;;;;;;23.30;99.90;;;;;;5023612;28;19929;-72
2022/07/26 10:22:58;;;;;;;;;;;23.40;99.90;;;;;;5023870;28;19936;-73
2022/07/26 10:25:47;;;;;;;;;;;23.40;99.90;;;;;;5027783;28;19944;-72
2022/07/26 10:28:25;;;;;;;;;;;23.60;99.90;;;;;;5021983;28;19978;-72
2022/07/26 10:31:13;;;;;;;;;;;23.70;99.90;;;;;;5020497;28;19929;-72
2022/07/26 10:33:42;;;;;;;;;;;23.50;99.90;;;;;;5026374;28;19983;-72
2022/07/26 10:36:21;;;;;;;;;;;23.40;99.90;;;;;;5029542;28;19939;-72
2022/07/26 10:38:57;;;;;;;;;;;23.10;99.90;;;;;;5022809;28;20315;-72
2022/07/26 10:41:30;;;;;;;;;;;22.90;99.90;;;;;;5024105;28;19983;-72
2022/07/26 10:44:11;;;;;;;;;;;22.90;99.90;;;;;;5020903;28;19929;-72
2022/07/26 10:46:54;;;;;;;;;;;23.40;99.90;;;;;;5013058;28;19929;-71
2022/07/26 10:49:26;;;;;;;;;;;23.50;99.90;;;;;;5035776;28;19941;-71
2022/07/26 10:52:04;;;;;;;;;;;23.40;99.90;;;;;;5027150;28;19937;-71
2022/07/26 10:54:31;;;;;;;;;;;23.00;99.90;;;;;;5030442;28;20396;-71
2022/07/26 10:56:57;;;;;;;;;;;22.80;99.90;;;;;;5039631;28;20020;-71
2022/07/26 10:59:30;;;;;;;;;;;23.00;99.90;;;;;;5025330;28;20019;-72
2022/07/26 11:01:58;;;;;;;;;;;23.00;99.90;;;;;;5021843;28;19963;-71
2022/07/26 11:04:25;;;;;;;;;;;22.70;99.90;;;;;;5022774;28;19956;-71
2022/07/26 11:06:52;;;;;;;;;;;22.40;99.90;;;;;;5028164;28;19932;-72
2022/07/26 11:09:18;;;;;;;;;;;22.20;99.90;;;;;;5040164;28;19961;-71
2022/07/26 11:11:45;;;;;;;;;;;21.90;99.90;;;;;;5027250;28;19924;-71
2022/07/26 11:14:13;;;;;;;;;;;21.50;99.90;;;;;;5022163;28;20404;-71
2022/07/26 11:16:40;;;;;;;;;;;21.20;99.90;;;;;;5029350;28;20027;-71
2022/07/26 11:19:18;;;;;;;;;;;21.00;99.90;;;;;;5023451;28;20033;-71
2022/07/26 11:21:46;;;;;;;;;;;20.90;99.90;;;;;;5018966;28;19978;-71
2022/07/26 11:24:13;;;;;;;;;;;21.00;99.90;;;;;;5023685;28;19964;-71
2022/07/26 11:26:40;;;;;;;;;;;21.00;99.90;;;;;;5023401;28;19925;-71
2022/07/26 11:29:07;;;;;;;;;;;21.00;99.90;;;;;;5025501;28;20016;-71
2022/07/26 11:31:34;;;;;;;;;;;21.20;99.90;;;;;;5021460;28;19925;-71
2022/07/26 11:34:01;;;;;;;;;;;21.30;99.90;;;;;;5026580;28;19932;-71
2022/07/26 11:36:33;;;;;;;;;;;21.40;99.90;;;;;;5044295;28;19972;-71
2022/07/26 11:39:02;;;;;;;;;;;21.70;99.90;;;;;;5018650;28;19932;-72
2022/07/26 11:41:30;;;;;;;;;;;22.00;99.90;;;;;;5025534;28;19932;-71
2022/07/26 11:43:57;;;;;;;;;;;22.20;99.90;;;;;;5021542;28;19925;-72
2022/07/26 11:46:32;;;;;;;;;;;22.70;99.90;;;;;;5024079;28;20348;-70
2022/07/26 11:48:59;;;;;;;;;;;23.00;99.90;;;;;;5017424;28;19929;-71
2022/07/26 11:51:26;;;;;;;;;;;23.40;99.90;;;;;;5024791;28;19939;-71
2022/07/26 11:53:58;;;;;;;;;;;23.70;99.90;;;;;;5018162;28;20340;-71
2022/07/26 11:56:26;;;;;;;;;;;23.60;99.90;;;;;;5023435;28;19940;-71
2022/07/26 11:58:54;;;;;;;;;;;23.50;99.90;;;;;;5020943;28;19925;-70
2022/07/26 12:01:21;;;;;;;;;;;23.30;99.90;;;;;;5026083;28;19929;-71
2022/07/26 12:03:50;;;;;;;;;;;23.20;99.90;;;;;;5022825;28;19926;-73
2022/07/26 12:06:18;;;;;;;;;;;23.10;99.90;;;;;;5020235;28;20359;-73
2022/07/26 12:08:46;;;;;;;;;;;23.30;99.90;;;;;;5011385;28;20335;-73
2022/07/26 12:11:15;;;;;;;;;;;23.10;99.90;;;;;;5019625;28;19932;-72
2022/07/26 12:13:48;;;;;;;;;;;22.90;99.90;;;;;;5029903;28;19928;-72
2022/07/26 12:16:30;;;;;;;;;;;22.50;99.90;;;;;;5025040;28;19925;-72
2022/07/26 12:18:57;;;;;;;;;;;22.70;99.90;;;;;;5031183;28;20339;-72
2022/07/26 12:21:37;;;;;;;;;;;22.90;99.90;;;;;;5023694;28;19932;-71
2022/07/26 12:24:04;;;;;;;;;;;22.90;99.90;;;;;;5018718;28;19935;-71
2022/07/26 12:26:32;;;;;;;;;;;23.10;99.90;;;;;;5017174;28;19925;-71
2022/07/26 12:29:23;;;;;;;;;;;23.20;99.90;;;;;;5019253;28;20002;-70
2022/07/26 12:31:47;;;;;;;;;;;23.50;99.90;;;;;;5019723;28;19925;-71
2022/07/26 12:34:19;;;;;;;;;;;23.80;99.90;;;;;;5019165;28;20277;-72
2022/07/26 12:36:46;;;;;;;;;;;24.10;99.90;;;;;;5014241;28;19925;-71
2022/07/26 12:39:19;;;;;;;;;;;24.30;99.90;;;;;;5012768;28;20043;-71
2022/07/26 12:41:49;;;;;;;;;;;24.20;99.90;;;;;;5016583;28;19932;-72
2022/07/26 12:44:16;;;;;;;;;;;25.30;99.90;;;;;;5014973;28;19925;-72
2022/07/26 12:46:44;;;;;;;;;;;26.10;99.90;;;;;;5013035;28;19924;-72
2022/07/26 12:49:10;;;;;;;;;;;26.50;99.90;;;;;;5018162;28;20020;-70
2022/07/26 12:51:37;;;;;;;;;;;27.60;99.90;;;;;;5019027;28;19924;-70
2022/07/26 12:54:05;;;;;;;;;;;28.20;99.90;;;;;;5013736;28;19925;-72
2022/07/26 12:56:32;;;;;;;;;;;28.10;99.90;;;;;;5013498;28;19925;-70
2022/07/26 12:59:00;;;;;;;;;;;28.50;99.90;;;;;;5015400;28;20346;-70
2022/07/26 13:01:27;;;;;;;;;;;28.80;99.90;;;;;;5019241;28;19925;-70
2022/07/26 13:03:54;;;;;;;;;;;29.50;99.90;;;;;;5012513;28;19926;-70
2022/07/26 13:06:21;;;;;;;;;;;29.50;99.90;;;;;;5015884;28;19932;-70
2022/07/26 13:08:48;;;;;;;;;;;29.50;99.90;;;;;;5018573;28;19929;-71
2022/07/26 13:11:15;;;;;;;;;;;29.00;99.90;;;;;;5014587;28;20304;-70
2022/07/26 13:13:42;;;;;;;;;;;28.80;99.90;;;;;;5015013;28;19925;-71
2022/07/26 13:16:10;;;;;;;;;;;29.70;99.90;;;;;;5018263;28;19929;-70
2022/07/26 13:18:37;;;;;;;;;;;28.50;99.90;;;;;;5016959;28;19932;-70
2022/07/26 13:21:04;;;;;;;;;;;27.60;99.90;;;;;;5018524;28;20296;-70
2022/07/26 13:23:31;;;;;;;;;;;26.40;99.90;;;;;;5016329;28;20281;-70
2022/07/26 13:25:58;;;;;;;;;;;25.70;99.90;;;;;;5015720;28;20307;-70
2022/07/26 13:28:24;;;;;;;;;;;25.10;99.90;;;;;;5015158;28;19925;-70
2022/07/26 13:30:51;;;;;;;;;;;24.80;99.90;;;;;;5016304;28;19925;-70
2022/07/26 13:33:19;;;;;;;;;;;24.80;99.90;;;;;;5015352;28;19929;-70
2022/07/26 13:35:46;;;;;;;;;;;24.50;99.90;;;;;;5017596;28;19932;-70
2022/07/26 13:38:13;;;;;;;;;;;24.10;99.90;;;;;;5013704;28;19929;-75
2022/07/26 13:40:40;;;;;;;;;;;23.40;99.90;;;;;;5012710;28;20032;-70
2022/07/26 13:43:07;;;;;;;;;;;23.00;99.90;;;;;;5013190;28;20414;-71
2022/07/26 13:45:33;;;;;;;;;;;22.90;99.90;;;;;;5017849;28;20300;-70
2022/07/26 13:48:00;;;;;;;;;;;22.80;99.90;;;;;;5020401;28;19929;-71
2022/07/26 13:50:28;;;;;;;;;;;22.80;99.90;;;;;;5021930;28;19972;-72
2022/07/26 13:52:55;;;;;;;;;;;22.70;99.90;;;;;;5019824;28;19932;-70
2022/07/26 13:55:22;;;;;;;;;;;22.80;99.90;;;;;;5026058;28;19925;-71
2022/07/26 13:57:49;;;;;;;;;;;22.70;99.90;;;;;;5018722;28;20289;-70
2022/07/26 14:00:16;;;;;;;;;;;22.60;99.90;;;;;;5026458;28;20384;-70
2022/07/26 14:02:43;;;;;;;;;;;22.60;99.90;;;;;;5017066;28;19932;-70
2022/07/26 14:05:09;;;;;;;;;;;22.60;99.90;;;;;;5027048;28;19940;-70
2022/07/26 14:07:38;;;;;;;;;;;22.60;99.90;;;;;;5024234;28;20400;-70
2022/07/26 14:10:05;;;;;;;;;;;22.70;99.90;;;;;;5018187;28;19925;-70
2022/07/26 14:12:32;;;;;;;;;;;22.80;99.90;;;;;;5015303;28;19929;-70
2022/07/26 14:14:59;;;;;;;;;;;23.00;99.90;;;;;;5021659;28;20355;-70
2022/07/26 14:17:26;;;;;;;;;;;23.20;99.90;;;;;;5018850;28;19929;-71
2022/07/26 14:19:53;;;;;;;;;;;23.40;99.90;;;;;;5018419;28;19932;-71
2022/07/26 14:22:19;;;;;;;;;;;24.40;99.90;;;;;;5019698;28;19925;-71
2022/07/26 14:24:48;;;;;;;;;;;25.60;99.90;;;;;;5024453;28;20404;-70
2022/07/26 14:27:14;;;;;;;;;;;25.60;99.90;;;;;;5021150;28;19925;-70
2022/07/26 14:29:42;;;;;;;;;;;25.30;99.90;;;;;;5040193;28;20039;-70
2022/07/26 14:32:09;;;;;;;;;;;25.00;99.90;;;;;;5019318;28;19925;-70